Time;durP1;ratioP1;P1;durP2;ratioP2;P2;SDS_P1;SDS_P2;PMS_P1;PMS_P2;Temp;Humidity;BMP_temperature;BMP_pressure;BME280_temperature;BME280_humidity;BME280_pressure;Samples;Min_cycle;Max_cycle;Signal;HPM_P1;HPM_P2
2023/09/15 00:00:43;;;;;;;1.00;1.00;;;12.40;99.90;;;;;;4993992;28;20050;-90
2023/09/15 00:03:09;;;;;;;1.00;1.00;;;12.40;99.90;;;;;;4982322;28;20046;-91
2023/09/15 00:05:35;;;;;;;1.00;1.00;;;12.40;99.90;;;;;;4968779;28;20041;-90
2023/09/15 00:08:04;;;;;;;0.90;0.90;;;12.40;99.90;;;;;;4975987;28;20050;-90
2023/09/15 00:10:31;;;;;;;0.98;0.98;;;12.30;99.90;;;;;;4977574;28;20081;-90
2023/09/15 00:12:58;;;;;;;0.90;0.90;;;12.30;99.90;;;;;;4995638;28;20050;-90
2023/09/15 00:15:24;;;;;;;0.90;0.90;;;12.20;99.90;;;;;;4976150;28;20038;-89
2023/09/15 00:17:50;;;;;;;0.90;0.90;;;12.20;99.90;;;;;;4975789;28;20072;-90
2023/09/15 00:20:16;;;;;;;0.90;0.90;;;12.20;99.90;;;;;;4975458;28;20492;-89
2023/09/15 00:22:52;;;;;;;0.90;0.90;;;12.00;99.90;;;;;;4976877;28;20046;-90
2023/09/15 00:25:29;;;;;;;0.90;0.90;;;12.00;99.90;;;;;;4976413;28;20042;-90
2023/09/15 00:27:57;;;;;;;0.82;0.82;;;11.90;99.90;;;;;;4975589;28;20076;-91
2023/09/15 00:30:24;;;;;;;0.90;0.90;;;11.80;99.90;;;;;;4979314;28;20042;-89
2023/09/15 00:32:51;;;;;;;0.80;0.80;;;11.80;99.90;;;;;;4972371;28;20057;-90
2023/09/15 00:35:22;;;;;;;0.90;0.90;;;11.80;99.90;;;;;;4974315;28;20042;-91
2023/09/15 00:37:52;;;;;;;0.90;0.90;;;11.90;99.90;;;;;;4973344;28;20092;-90
2023/09/15 00:40:20;;;;;;;0.82;0.82;;;11.90;99.90;;;;;;4976594;28;20567;-89
2023/09/15 00:42:48;;;;;;;0.90;0.90;;;11.70;99.90;;;;;;4975040;28;20052;-91
2023/09/15 00:45:14;;;;;;;0.90;0.90;;;11.80;99.90;;;;;;4972980;28;20046;-90
2023/09/15 00:47:46;;;;;;;0.90;0.90;;;11.80;99.90;;;;;;4973753;28;20399;-89
2023/09/15 00:50:17;;;;;;;0.90;0.90;;;11.80;99.90;;;;;;4976638;28;20097;-91
2023/09/15 00:52:50;;;;;;;0.90;0.90;;;11.80;99.90;;;;;;4978657;28;20673;-92
2023/09/15 00:55:19;;;;;;;0.90;0.90;;;11.70;99.90;;;;;;4980403;28;20770;-91
2023/09/15 00:57:47;;;;;;;0.90;0.90;;;11.70;99.90;;;;;;4978721;28;20042;-88
2023/09/15 01:00:14;;;;;;;0.90;0.90;;;11.60;99.90;;;;;;4975415;28;20046;-89
2023/09/15 01:02:42;;;;;;;0.90;0.90;;;11.60;99.90;;;;;;4974540;28;20123;-90
2023/09/15 01:05:20;;;;;;;0.93;0.93;;;11.50;99.90;;;;;;4974495;28;20050;-90
2023/09/15 01:07:48;;;;;;;0.90;0.90;;;11.50;99.90;;;;;;4968793;28;20129;-90
2023/09/15 01:10:18;;;;;;;0.90;0.90;;;11.60;99.90;;;;;;4969055;28;20043;-92
2023/09/15 01:12:46;;;;;;;0.90;0.90;;;11.50;99.90;;;;;;4979354;28;20388;-92
2023/09/15 01:15:12;;;;;;;0.90;0.90;;;11.50;99.90;;;;;;4978338;28;20047;-92
2023/09/15 01:18:06;;;;;;;0.90;0.90;;;11.50;99.90;;;;;;4977046;28;20128;-91
2023/09/15 01:20:41;;;;;;;0.95;0.95;;;11.60;99.90;;;;;;4990012;28;20172;-91
2023/09/15 01:23:15;;;;;;;0.80;0.80;;;11.60;99.90;;;;;;4976793;28;20049;-91
2023/09/15 01:26:31;;;;;;;0.80;0.80;;;11.60;99.90;;;;;;4981297;28;20046;-91
2023/09/15 01:29:18;;;;;;;0.80;0.80;;;11.60;99.90;;;;;;4935136;28;20449;-91
2023/09/15 01:31:49;;;;;;;0.80;0.80;;;11.50;99.90;;;;;;4977663;28;20042;-91
2023/09/15 01:34:16;;;;;;;0.90;0.90;;;11.50;99.90;;;;;;4973211;28;20084;-91
2023/09/15 01:36:44;;;;;;;0.80;0.80;;;11.50;99.90;;;;;;4970305;28;20508;-90
2023/09/15 01:39:10;;;;;;;0.80;0.80;;;11.50;99.90;;;;;;4975166;28;20052;-90
2023/09/15 01:41:36;;;;;;;0.80;0.80;;;11.40;99.90;;;;;;4984594;28;20053;-91
2023/09/15 01:44:03;;;;;;;0.80;0.80;;;11.40;99.90;;;;;;4980107;28;20046;-91
2023/09/15 01:46:28;;;;;;;0.80;0.80;;;11.40;99.90;;;;;;4975534;28;20042;-91
2023/09/15 01:48:57;;;;;;;0.80;0.80;;;11.40;99.90;;;;;;4985366;28;20053;-92
2023/09/15 01:51:23;;;;;;;0.80;0.80;;;11.40;99.90;;;;;;4974322;28;20046;-92
2023/09/15 01:53:52;;;;;;;0.80;0.80;;;11.30;99.90;;;;;;4979503;28;20048;-91
2023/09/15 01:56:23;;;;;;;0.80;0.80;;;11.30;99.90;;;;;;4979022;28;20069;-90
2023/09/15 01:58:52;;;;;;;0.80;0.80;;;11.10;99.90;;;;;;4979842;28;20073;-91
2023/09/15 02:01:17;;;;;;;0.80;0.80;;;11.30;99.90;;;;;;4993545;28;20037;-90
2023/09/15 02:03:43;;;;;;;0.80;0.80;;;11.20;99.90;;;;;;4981071;28;20079;-90
2023/09/15 02:06:16;;;;;;;0.80;0.80;;;11.10;99.90;;;;;;4977337;28;20050;-90
2023/09/15 02:08:45;;;;;;;0.90;0.90;;;11.20;99.90;;;;;;4978343;28;20080;-92
2023/09/15 02:11:11;;;;;;;0.88;0.88;;;11.10;99.90;;;;;;4979788;28;20125;-91
2023/09/15 02:13:47;;;;;;;0.80;0.80;;;11.10;99.90;;;;;;4978799;28;20479;-91
2023/09/15 02:16:25;;;;;;;0.90;0.90;;;11.10;99.90;;;;;;4980534;28;20040;-90
2023/09/15 02:18:50;;;;;;;0.88;0.88;;;11.10;99.90;;;;;;4975596;28;20527;-90
2023/09/15 02:21:16;;;;;;;1.00;1.00;;;11.00;99.90;;;;;;4981060;28;20050;-91
2023/09/15 02:23:42;;;;;;;1.10;1.10;;;11.00;99.90;;;;;;4993534;28;20127;-91
2023/09/15 02:26:08;;;;;;;1.10;1.10;;;11.00;99.90;;;;;;4974106;28;20080;-91
2023/09/15 02:28:34;;;;;;;1.13;1.13;;;11.00;99.90;;;;;;4995076;28;20088;-93
2023/09/15 02:31:04;;;;;;;1.15;1.15;;;10.90;99.90;;;;;;4978733;28;20049;-93
2023/09/15 02:33:30;;;;;;;1.10;1.10;;;10.90;99.90;;;;;;4980485;28;20081;-94
2023/09/15 02:35:56;;;;;;;1.10;1.10;;;11.00;99.90;;;;;;4975431;28;20500;-94
2023/09/15 02:38:21;;;;;;;1.10;1.10;;;11.00;99.90;;;;;;4980120;28;20061;-91
2023/09/15 02:40:47;;;;;;;1.00;1.00;;;11.00;99.90;;;;;;4977229;28;20068;-90
2023/09/15 02:43:13;;;;;;;1.00;1.00;;;11.00;99.90;;;;;;4978668;28;20099;-91
2023/09/15 02:45:39;;;;;;;1.00;1.00;;;11.00;99.90;;;;;;4976829;28;20050;-92
2023/09/15 02:48:06;;;;;;;1.05;1.05;;;11.00;99.90;;;;;;4989954;28;20058;-94
2023/09/15 02:50:32;;;;;;;1.10;1.10;;;11.00;99.90;;;;;;4979759;28;20046;-91
2023/09/15 02:52:59;;;;;;;1.10;1.10;;;10.90;99.90;;;;;;4978345;28;20058;-95
2023/09/15 02:55:28;;;;;;;1.00;1.00;;;10.80;99.90;;;;;;4995431;28;20135;-93
2023/09/15 02:57:54;;;;;;;1.10;1.10;;;10.80;99.90;;;;;;4980482;28;20084;-92
2023/09/15 03:00:20;;;;;;;1.08;1.08;;;10.70;99.90;;;;;;4977983;28;20049;-93
2023/09/15 03:02:46;;;;;;;1.08;1.08;;;10.70;99.90;;;;;;4976840;28;20065;-93
2023/09/15 03:05:13;;;;;;;1.00;1.00;;;10.70;99.90;;;;;;4977950;28;20097;-91
2023/09/15 03:07:42;;;;;;;1.00;1.00;;;10.70;99.90;;;;;;4995568;28;20464;-92
2023/09/15 03:10:11;;;;;;;0.98;0.98;;;10.70;99.90;;;;;;4979570;28;20053;-92
2023/09/15 03:12:37;;;;;;;1.00;1.00;;;10.70;99.90;;;;;;4979341;28;20511;-92
2023/09/15 03:15:06;;;;;;;1.00;1.00;;;10.70;99.90;;;;;;4977648;28;20121;-92
2023/09/15 03:17:39;;;;;;;0.90;0.90;;;10.70;99.90;;;;;;4978415;28;20066;-93
2023/09/15 03:20:16;;;;;;;0.90;0.90;;;10.70;99.90;;;;;;4994652;28;20782;-91
2023/09/15 03:22:42;;;;;;;0.88;0.88;;;10.70;99.90;;;;;;4975611;28;20570;-91
2023/09/15 03:25:08;;;;;;;0.90;0.90;;;10.60;99.90;;;;;;4992315;28;20131;-92
2023/09/15 03:27:34;;;;;;;0.90;0.90;;;10.50;99.90;;;;;;4980928;28;20042;-91
2023/09/15 03:30:00;;;;;;;0.90;0.90;;;10.60;99.90;;;;;;4978881;28;20504;-92
2023/09/15 03:32:26;;;;;;;0.90;0.90;;;10.60;99.90;;;;;;4979200;28;20525;-92
2023/09/15 03:34:55;;;;;;;0.82;0.82;;;10.50;99.90;;;;;;4979860;28;20038;-93
2023/09/15 03:37:21;;;;;;;0.90;0.90;;;10.50;99.90;;;;;;4980523;28;20049;-92
2023/09/15 03:39:47;;;;;;;0.90;0.90;;;10.40;99.90;;;;;;4980981;28;20068;-93
2023/09/15 03:42:14;;;;;;;0.90;0.90;;;10.40;99.90;;;;;;4983817;28;20113;-91
2023/09/15 03:44:39;;;;;;;0.90;0.90;;;10.50;99.90;;;;;;4976656;28;20121;-92
2023/09/15 03:47:14;;;;;;;0.90;0.90;;;10.50;99.90;;;;;;4977220;28;20078;-92
2023/09/15 03:49:52;;;;;;;0.90;0.90;;;10.50;99.90;;;;;;4979629;28;20063;-92
2023/09/15 03:52:21;;;;;;;0.80;0.80;;;10.50;99.90;;;;;;4978980;28;20045;-93
2023/09/15 03:54:46;;;;;;;0.80;0.80;;;10.40;99.90;;;;;;4979541;28;20092;-92
2023/09/15 03:57:12;;;;;;;0.80;0.80;;;10.40;99.90;;;;;;4977077;28;20503;-91
2023/09/15 03:59:38;;;;;;;0.82;0.82;;;10.40;99.90;;;;;;4977466;28;20046;-91
2023/09/15 04:02:04;;;;;;;0.90;0.90;;;10.40;99.90;;;;;;4979207;28;20053;-92
2023/09/15 04:04:29;;;;;;;0.80;0.80;;;10.40;99.90;;;;;;4982497;28;20064;-92
2023/09/15 04:06:55;;;;;;;0.90;0.90;;;10.40;99.90;;;;;;4977959;28;20096;-94
2023/09/15 04:09:24;;;;;;;0.80;0.80;;;10.30;99.90;;;;;;4980836;28;20535;-92
2023/09/15 04:11:51;;;;;;;0.90;0.90;;;10.40;99.90;;;;;;4982113;28;20053;-91
2023/09/15 04:14:17;;;;;;;0.80;0.80;;;10.30;99.90;;;;;;4977137;28;20042;-91
2023/09/15 04:16:46;;;;;;;0.90;0.90;;;10.40;99.90;;;;;;4981741;28;20455;-91
2023/09/15 04:19:12;;;;;;;0.90;0.90;;;10.40;99.90;;;;;;4979150;28;20046;-92
2023/09/15 04:21:38;;;;;;;0.90;0.90;;;10.30;99.90;;;;;;4977712;28;20132;-92
2023/09/15 04:24:07;;;;;;;0.90;0.90;;;10.30;99.90;;;;;;4977301;28;20095;-92
2023/09/15 04:26:33;;;;;;;1.00;1.00;;;10.30;99.90;;;;;;4978313;28;20112;-92
2023/09/15 04:28:59;;;;;;;0.90;0.90;;;10.20;99.90;;;;;;4993279;28;20038;-92
2023/09/15 04:31:28;;;;;;;0.90;0.90;;;10.20;99.90;;;;;;4978968;28;20536;-92
2023/09/15 04:33:54;;;;;;;0.90;0.90;;;10.30;99.90;;;;;;4976326;28;20137;-90
2023/09/15 04:36:23;;;;;;;1.00;1.00;;;10.20;99.90;;;;;;4976526;28;20049;-92
2023/09/15 04:38:52;;;;;;;0.90;0.90;;;10.20;99.90;;;;;;4974204;28;20077;-91
2023/09/15 04:41:17;;;;;;;1.00;1.00;;;10.20;99.90;;;;;;4977282;28;20050;-91
2023/09/15 04:43:43;;;;;;;1.00;1.00;;;10.30;99.90;;;;;;4973176;28;20369;-91
2023/09/15 04:46:09;;;;;;;1.00;1.00;;;10.10;99.90;;;;;;4977071;28;20120;-95
2023/09/15 04:48:44;;;;;;;1.00;1.00;;;10.20;99.90;;;;;;4976285;28;20088;-92
2023/09/15 04:51:13;;;;;;;1.00;1.00;;;10.10;99.90;;;;;;4988256;28;20035;-93
2023/09/15 04:53:39;;;;;;;1.08;1.08;;;10.20;99.90;;;;;;4976212;28;20077;-90
2023/09/15 04:56:08;;;;;;;1.00;1.00;;;10.00;99.90;;;;;;4982377;28;20314;-93
2023/09/15 04:58:45;;;;;;;0.95;0.95;;;10.20;99.90;;;;;;4976882;28;20474;-95
2023/09/15 05:01:16;;;;;;;0.95;0.95;;;10.00;99.90;;;;;;4970942;28;20128;-93
2023/09/15 05:03:45;;;;;;;0.93;0.93;;;10.00;99.90;;;;;;4974851;28;20077;-92
2023/09/15 05:06:14;;;;;;;0.90;0.90;;;10.00;99.90;;;;;;4984821;28;20054;-92
2023/09/15 05:08:43;;;;;;;0.90;0.90;;;10.10;99.90;;;;;;4980160;28;20042;-94
2023/09/15 05:11:09;;;;;;;0.93;0.93;;;10.10;99.90;;;;;;4958463;28;20042;-91
2023/09/15 05:13:34;;;;;;;0.90;0.90;;;10.00;99.90;;;;;;4979544;28;20044;-93
2023/09/15 05:16:10;;;;;;;0.90;0.90;;;10.10;99.90;;;;;;4974054;28;20073;-92
2023/09/15 05:18:36;;;;;;;0.90;0.90;;;10.20;99.90;;;;;;4977364;28;20048;-90
2023/09/15 05:21:02;;;;;;;0.98;0.98;;;10.00;99.90;;;;;;4976036;28;20046;-93
2023/09/15 05:23:28;;;;;;;1.00;1.00;;;10.20;99.90;;;;;;4976596;28;20499;-89
2023/09/15 05:25:53;;;;;;;0.93;0.93;;;10.20;99.90;;;;;;4977057;28;20046;-90
2023/09/15 05:28:22;;;;;;;0.98;0.98;;;10.20;99.90;;;;;;4975582;28;20169;-94
2023/09/15 05:30:57;;;;;;;1.50;1.40;;;10.10;99.90;;;;;;4978937;28;20042;-93
2023/09/15 05:33:28;;;;;;;0.98;0.98;;;10.30;99.90;;;;;;4975506;28;20034;-93
2023/09/15 05:35:58;;;;;;;0.93;0.93;;;10.40;99.90;;;;;;4976583;28;20054;-93
2023/09/15 05:38:24;;;;;;;0.90;0.90;;;10.40;99.90;;;;;;4992519;28;20646;-94
2023/09/15 05:40:56;;;;;;;0.93;0.93;;;10.40;99.90;;;;;;4976636;28;20148;-95
2023/09/15 05:43:22;;;;;;;0.95;0.95;;;10.50;99.90;;;;;;4984042;28;20131;-90
2023/09/15 05:45:48;;;;;;;1.00;1.00;;;10.60;99.90;;;;;;4977056;28;20085;-93
2023/09/15 05:48:23;;;;;;;0.95;0.95;;;10.70;99.90;;;;;;4981789;28;20080;-90
2023/09/15 05:50:50;;;;;;;0.90;0.90;;;10.70;99.90;;;;;;4981547;28;20049;-89
2023/09/15 05:53:15;;;;;;;1.00;1.00;;;10.70;99.90;;;;;;4980301;28;20046;-91
2023/09/15 05:55:43;;;;;;;0.82;0.82;;;10.80;99.90;;;;;;4982754;28;20045;-89
2023/09/15 05:58:08;;;;;;;0.80;0.80;;;11.00;99.90;;;;;;4992786;28;20073;-92
2023/09/15 06:00:34;;;;;;;0.85;0.85;;;11.00;99.90;;;;;;4974455;28;20790;-86
2023/09/15 06:03:00;;;;;;;0.88;0.88;;;11.00;99.90;;;;;;4971352;28;20582;-87
2023/09/15 06:05:25;;;;;;;0.80;0.80;;;11.20;99.90;;;;;;4978054;28;20057;-89
2023/09/15 06:07:52;;;;;;;0.80;0.80;;;11.30;99.90;;;;;;4977472;28;20054;-92
2023/09/15 06:10:18;;;;;;;0.80;0.80;;;11.40;99.90;;;;;;4993026;28;20042;-90
2023/09/15 06:12:44;;;;;;;0.80;0.80;;;11.50;99.90;;;;;;4978182;28;20045;-91
2023/09/15 06:15:10;;;;;;;0.70;0.70;;;11.70;99.90;;;;;;4979698;28;20046;-91
2023/09/15 06:17:36;;;;;;;0.70;0.70;;;11.90;99.90;;;;;;4979207;28;20042;-88
2023/09/15 06:20:04;;;;;;;0.70;0.70;;;11.90;99.90;;;;;;4978343;28;20407;-90
2023/09/15 06:22:30;;;;;;;0.70;0.70;;;12.10;99.90;;;;;;5006087;28;20119;-93
2023/09/15 06:24:56;;;;;;;0.80;0.80;;;12.20;99.90;;;;;;4983148;28;20046;-90
2023/09/15 06:27:21;;;;;;;0.80;0.80;;;12.40;99.90;;;;;;4976069;28;20105;-91
2023/09/15 06:29:58;;;;;;;0.80;0.80;;;12.40;99.90;;;;;;4967776;28;20487;-93
2023/09/15 06:32:24;;;;;;;0.80;0.80;;;12.50;99.90;;;;;;4971438;28;20047;-91
2023/09/15 06:34:50;;;;;;;0.80;0.80;;;12.80;99.90;;;;;;4988423;28;20045;-91
2023/09/15 06:37:16;;;;;;;0.80;0.80;;;12.90;99.90;;;;;;4974748;28;20076;-92
2023/09/15 06:39:42;;;;;;;0.90;0.90;;;13.10;99.90;;;;;;4979667;28;20050;-87
2023/09/15 06:42:08;;;;;;;0.90;0.90;;;13.20;99.90;;;;;;4992100;28;20053;-88
2023/09/15 06:44:36;;;;;;;1.00;1.00;;;13.20;99.90;;;;;;4976261;28;20048;-89
2023/09/15 06:47:03;;;;;;;1.00;1.00;;;13.50;99.90;;;;;;4982650;28;20054;-91
2023/09/15 06:49:30;;;;;;;0.90;0.90;;;13.60;99.90;;;;;;4977567;28;20048;-88
2023/09/15 06:51:56;;;;;;;0.90;0.90;;;13.90;99.90;;;;;;4975398;28;20084;-86
2023/09/15 06:54:21;;;;;;;0.90;0.90;;;14.00;99.90;;;;;;4990617;28;20611;-86
2023/09/15 06:56:52;;;;;;;1.00;1.00;;;14.00;99.90;;;;;;4991268;28;20054;-87
2023/09/15 06:59:21;;;;;;;0.80;0.80;;;14.10;99.90;;;;;;4992116;28;20045;-90
2023/09/15 07:01:47;;;;;;;0.80;0.80;;;14.30;99.90;;;;;;4993043;28;20051;-86
2023/09/15 07:04:13;;;;;;;0.90;0.90;;;14.40;99.90;;;;;;4992981;28;20038;-84
2023/09/15 07:06:40;;;;;;;0.90;0.90;;;14.30;99.90;;;;;;4989331;28;20860;-89
2023/09/15 07:09:08;;;;;;;0.98;0.98;;;14.30;99.90;;;;;;4975127;28;20073;-86
2023/09/15 07:11:34;;;;;;;0.85;0.85;;;14.40;99.90;;;;;;4972692;28;20046;-93
2023/09/15 07:14:09;;;;;;;0.80;0.80;;;14.50;99.90;;;;;;4994734;28;20046;-92
2023/09/15 07:16:35;;;;;;;0.90;0.90;;;14.50;99.90;;;;;;4984656;28;20042;-90
2023/09/15 07:19:01;;;;;;;0.80;0.80;;;14.40;99.90;;;;;;4989492;28;20077;-88
2023/09/15 07:21:26;;;;;;;0.80;0.80;;;14.50;99.90;;;;;;4979610;28;20065;-91
2023/09/15 07:23:53;;;;;;;0.80;0.80;;;14.50;99.90;;;;;;4994843;28;20182;-89
2023/09/15 07:26:19;;;;;;;0.70;0.70;;;14.80;99.90;;;;;;4994577;28;20092;-88
2023/09/15 07:28:45;;;;;;;0.80;0.80;;;14.80;99.90;;;;;;4975029;28;20050;-87
2023/09/15 07:31:10;;;;;;;0.70;0.70;;;15.10;99.90;;;;;;4986509;28;20050;-90
2023/09/15 07:33:36;;;;;;;0.75;0.75;;;15.10;99.90;;;;;;4988534;28;20768;-91
2023/09/15 07:36:05;;;;;;;0.70;0.70;;;15.10;99.90;;;;;;4987128;28;20046;-92
2023/09/15 07:38:31;;;;;;;0.70;0.70;;;15.40;99.90;;;;;;4971428;28;20156;-92
2023/09/15 07:40:57;;;;;;;0.70;0.70;;;15.40;99.90;;;;;;4974083;28;20052;-90
2023/09/15 07:43:23;;;;;;;0.70;0.70;;;15.40;99.90;;;;;;4978807;28;20054;-92
2023/09/15 07:45:50;;;;;;;0.70;0.70;;;15.80;99.90;;;;;;4974585;28;20145;-90
2023/09/15 07:48:16;;;;;;;0.70;0.70;;;16.00;99.90;;;;;;4975170;28;20107;-86
2023/09/15 07:50:42;;;;;;;0.70;0.70;;;15.90;99.90;;;;;;4989465;28;20042;-92
2023/09/15 07:53:08;;;;;;;0.70;0.70;;;16.10;99.90;;;;;;4986002;28;20042;-89
2023/09/15 07:55:34;;;;;;;0.70;0.70;;;16.10;99.90;;;;;;4981229;28;20049;-83
2023/09/15 07:58:00;;;;;;;0.70;0.70;;;16.30;99.90;;;;;;4978200;28;20050;-87
2023/09/15 08:00:26;;;;;;;0.70;0.70;;;16.30;99.90;;;;;;4981175;28;20100;-83
2023/09/15 08:02:54;;;;;;;0.75;0.75;;;16.70;99.90;;;;;;4999028;28;20077;-89
2023/09/15 08:05:20;;;;;;;0.70;0.70;;;16.50;99.90;;;;;;4970566;28;20088;-88
2023/09/15 08:07:46;;;;;;;0.80;0.80;;;16.90;99.90;;;;;;4987717;28;20616;-84
2023/09/15 08:10:18;;;;;;;0.70;0.70;;;16.80;99.90;;;;;;4978819;28;20056;-86
2023/09/15 08:12:48;;;;;;;0.70;0.70;;;17.10;99.90;;;;;;4975214;28;20117;-90
2023/09/15 08:15:17;;;;;;;0.68;0.68;;;16.90;99.90;;;;;;4970509;28;20038;-92
2023/09/15 08:17:44;;;;;;;0.80;0.80;;;17.40;99.90;;;;;;4993161;28;20467;-91
2023/09/15 08:20:15;;;;;;;0.70;0.70;;;16.60;99.90;;;;;;4973316;28;20053;-87
2023/09/15 08:22:46;;;;;;;0.75;0.75;;;17.30;99.90;;;;;;4975623;28;20053;-87
2023/09/15 08:25:14;;;;;;;0.77;0.77;;;17.10;99.90;;;;;;4989858;28;20038;-85
2023/09/15 08:27:44;;;;;;;0.80;0.80;;;17.30;99.90;;;;;;4982924;28;20308;-88
2023/09/15 08:30:10;;;;;;;0.85;0.85;;;17.50;99.90;;;;;;4986327;28;20056;-88
2023/09/15 08:32:36;;;;;;;0.80;0.80;;;17.40;99.90;;;;;;4970700;28;20050;-93
2023/09/15 08:35:03;;;;;;;0.82;0.82;;;17.50;99.90;;;;;;4992244;28;20056;-88
2023/09/15 08:37:32;;;;;;;0.80;0.80;;;18.00;99.90;;;;;;4976235;28;20049;-86
2023/09/15 08:40:05;;;;;;;0.82;0.82;;;18.20;99.90;;;;;;4991324;28;20044;-95
2023/09/15 08:42:36;;;;;;;0.95;0.95;;;18.20;99.90;;;;;;4978360;28;20050;-89
2023/09/15 08:45:06;;;;;;;0.85;0.85;;;17.60;99.90;;;;;;4978419;28;20038;-91
2023/09/15 08:47:38;;;;;;;0.90;0.90;;;18.00;99.90;;;;;;4973057;28;20073;-88
2023/09/15 08:50:04;;;;;;;0.90;0.90;;;18.30;99.90;;;;;;4988696;28;20529;-92
2023/09/15 08:52:31;;;;;;;0.98;0.98;;;18.20;99.90;;;;;;4992656;28;20053;-87
2023/09/15 08:55:01;;;;;;;1.00;1.00;;;18.40;99.90;;;;;;4989182;28;20124;-89
2023/09/15 08:57:30;;;;;;;1.00;1.00;;;18.80;99.90;;;;;;4977262;28;20406;-90
2023/09/15 08:59:57;;;;;;;0.90;0.90;;;18.90;99.90;;;;;;4966178;28;20052;-88
2023/09/15 09:02:24;;;;;;;1.00;1.00;;;18.90;99.90;;;;;;4996732;28;20049;-90
2023/09/15 09:04:52;;;;;;;1.08;1.08;;;19.40;99.90;;;;;;4988025;28;20092;-88
2023/09/15 09:07:21;;;;;;;1.10;1.10;;;19.70;99.90;;;;;;4973048;28;20085;-85
2023/09/15 09:09:53;;;;;;;1.38;1.35;;;19.50;99.90;;;;;;4983420;28;20046;-93
2023/09/15 09:12:20;;;;;;;1.27;1.27;;;19.80;99.90;;;;;;4969697;28;20045;-86
2023/09/15 09:15:27;;;;;;;1.30;1.30;;;19.90;99.90;;;;;;4972424;28;20053;-93
2023/09/15 09:17:52;;;;;;;1.17;1.17;;;19.70;99.90;;;;;;4945105;28;20066;-90
2023/09/15 09:20:26;;;;;;;1.23;1.23;;;19.80;99.90;;;;;;4984330;28;20041;-90
2023/09/15 09:22:55;;;;;;;0.98;0.98;;;19.50;99.90;;;;;;4980447;28;20056;-94
2023/09/15 09:25:29;;;;;;;1.00;1.00;;;19.70;99.90;;;;;;4998203;28;20045;-95
2023/09/15 09:27:55;;;;;;;0.90;0.90;;;19.80;99.90;;;;;;4979224;28;20085;-89
2023/09/15 09:30:29;;;;;;;1.00;1.00;;;20.00;99.90;;;;;;4982382;28;20641;-94
2023/09/15 09:32:56;;;;;;;0.88;0.88;;;19.40;99.90;;;;;;4982705;28;20050;-92
2023/09/15 09:35:27;;;;;;;0.80;0.80;;;19.50;99.90;;;;;;4973903;28;20050;-91
2023/09/15 09:38:04;;;;;;;0.80;0.80;;;20.20;99.90;;;;;;4971942;28;20070;-95
2023/09/15 09:40:33;;;;;;;0.80;0.80;;;19.90;99.90;;;;;;4982096;28;20466;-85
2023/09/15 09:42:59;;;;;;;0.80;0.80;;;20.00;99.90;;;;;;4975548;28;20092;-89
2023/09/15 09:45:27;;;;;;;0.80;0.80;;;20.00;99.90;;;;;;4986962;28;20050;-92
2023/09/15 09:47:54;;;;;;;0.80;0.80;;;20.30;99.90;;;;;;4972344;28;20096;-86
2023/09/15 09:50:21;;;;;;;0.75;0.75;;;20.20;99.90;;;;;;4995252;28;20077;-82
2023/09/15 09:52:48;;;;;;;0.75;0.75;;;20.60;99.90;;;;;;4984441;28;20120;-83
2023/09/15 09:55:14;;;;;;;0.77;0.77;;;20.60;99.90;;;;;;5010805;28;20056;-85
2023/09/15 09:57:40;;;;;;;0.75;0.75;;;20.90;99.90;;;;;;4973792;28;20113;-89
2023/09/15 10:00:10;;;;;;;0.70;0.70;;;21.00;99.90;;;;;;4979806;28;20042;-91
2023/09/15 10:02:37;;;;;;;0.70;0.70;;;21.10;99.90;;;;;;4977603;28;20045;-89
2023/09/15 10:05:07;;;;;;;0.70;0.70;;;21.40;99.90;;;;;;4997371;28;20547;-85
2023/09/15 10:07:33;;;;;;;0.70;0.70;;;21.50;99.90;;;;;;4974331;28;20487;-83
2023/09/15 10:09:59;;;;;;;0.70;0.70;;;21.60;99.90;;;;;;4988195;28;20046;-87
2023/09/15 10:12:25;;;;;;;0.73;0.73;;;21.20;99.90;;;;;;4989855;28;20533;-88
2023/09/15 10:14:52;;;;;;;0.70;0.70;;;20.80;99.90;;;;;;4987946;28;20049;-83
2023/09/15 10:17:18;;;;;;;0.60;0.60;;;21.20;99.90;;;;;;4990287;28;20058;-83
2023/09/15 10:19:50;;;;;;;0.60;0.60;;;21.70;99.90;;;;;;4989929;28;20050;-82
2023/09/15 10:22:17;;;;;;;0.77;0.77;;;21.80;99.90;;;;;;5006942;28;20053;-86
2023/09/15 10:24:44;;;;;;;0.70;0.70;;;21.60;99.90;;;;;;4981387;28;20143;-84
2023/09/15 10:27:11;;;;;;;0.70;0.70;;;21.80;99.90;;;;;;4989352;28;20046;-83
2023/09/15 10:29:37;;;;;;;0.65;0.65;;;21.50;99.90;;;;;;5013354;28;20045;-82
2023/09/15 10:32:04;;;;;;;0.60;0.60;;;22.10;99.90;;;;;;5006169;28;20056;-83
2023/09/15 10:34:31;;;;;;;0.60;0.60;;;21.90;99.90;;;;;;5001550;28;20538;-90
2023/09/15 10:37:02;;;;;;;0.60;0.60;;;21.50;99.90;;;;;;4986643;28;20164;-83
2023/09/15 10:39:39;;;;;;;0.60;0.60;;;21.50;99.90;;;;;;5018235;28;20111;-84
2023/09/15 10:42:08;;;;;;;0.60;0.60;;;21.30;99.90;;;;;;4988028;28;20049;-86
2023/09/15 10:44:34;;;;;;;0.70;0.70;;;21.40;99.90;;;;;;4990138;28;20561;-84
2023/09/15 10:47:00;;;;;;;0.60;0.60;;;21.20;99.90;;;;;;4974453;28;20045;-87
2023/09/15 10:49:26;;;;;;;0.65;0.65;;;21.40;99.90;;;;;;4992913;28;20077;-84
2023/09/15 10:51:57;;;;;;;0.65;0.65;;;21.70;99.90;;;;;;4985907;28;21440;-88
2023/09/15 10:54:25;;;;;;;0.63;0.63;;;21.40;99.90;;;;;;4971646;28;20407;-85
2023/09/15 10:56:51;;;;;;;0.60;0.60;;;22.00;99.90;;;;;;4987951;28;20053;-86
2023/09/15 10:59:17;;;;;;;0.60;0.60;;;22.20;99.90;;;;;;4972535;28;20052;-84
2023/09/15 11:01:43;;;;;;;0.60;0.60;;;22.20;99.90;;;;;;4992877;28;20495;-86
2023/09/15 11:04:17;;;;;;;0.60;0.60;;;22.50;99.90;;;;;;4992519;28;20116;-83
2023/09/15 11:06:53;;;;;;;;;;;22.10;99.90;;;;;;4990617;28;20568;-86
2023/09/15 11:09:20;;;;;;;0.60;0.60;;;22.60;99.90;;;;;;4994108;28;19932;-85
2023/09/15 11:11:51;;;;;;;0.60;0.60;;;22.70;99.90;;;;;;4990288;28;20050;-87
2023/09/15 11:14:21;;;;;;;0.60;0.60;;;22.80;99.90;;;;;;4975432;28;20124;-89
2023/09/15 11:16:49;;;;;;;0.70;0.70;;;22.60;99.90;;;;;;4989502;28;20050;-81
2023/09/15 11:19:19;;;;;;;0.60;0.60;;;22.40;99.90;;;;;;5009065;28;20049;-90
2023/09/15 11:21:46;;;;;;;0.70;0.70;;;22.40;99.90;;;;;;4991430;28;20180;-90
2023/09/15 11:24:12;;;;;;;0.60;0.60;;;21.50;99.90;;;;;;4971870;28;20138;-80
2023/09/15 11:26:52;;;;;;;0.70;0.70;;;22.20;99.90;;;;;;4988364;28;20466;-85
2023/09/15 11:29:25;;;;;;;0.60;0.60;;;22.80;99.90;;;;;;4987712;28;20046;-85
2023/09/15 11:31:52;;;;;;;0.97;0.97;;;22.60;99.90;;;;;;4989355;28;20049;-83
2023/09/15 11:34:19;;;;;;;0.70;0.70;;;22.90;99.90;;;;;;5005700;28;20295;-82
2023/09/15 11:36:44;;;;;;;0.80;0.80;;;21.90;99.90;;;;;;4990514;28;20057;-87
2023/09/15 11:39:15;;;;;;;0.70;0.70;;;22.00;99.90;;;;;;4987432;28;20037;-85
2023/09/15 11:41:54;;;;;;;0.70;0.70;;;22.60;99.90;;;;;;4986694;28;20050;-87
2023/09/15 11:44:31;;;;;;;0.80;0.80;;;23.00;99.90;;;;;;4978528;28;20136;-88
2023/09/15 11:46:59;;;;;;;0.70;0.70;;;22.00;99.90;;;;;;4981582;28;20161;-87
2023/09/15 11:49:26;;;;;;;0.75;0.75;;;21.90;99.90;;;;;;4971546;28;20050;-88
2023/09/15 11:51:57;;;;;;;0.73;0.73;;;22.30;99.90;;;;;;4993256;28;20086;-83
2023/09/15 11:54:24;;;;;;;0.70;0.70;;;22.50;99.90;;;;;;4990329;28;20056;-92
2023/09/15 11:56:50;;;;;;;0.75;0.75;;;22.50;99.90;;;;;;4991399;28;20088;-92
2023/09/15 11:59:16;;;;;;;0.70;0.70;;;22.10;99.90;;;;;;4988468;28;20495;-85
2023/09/15 12:01:41;;;;;;;0.70;0.70;;;22.60;99.90;;;;;;4988317;28;20048;-85
2023/09/15 12:04:10;;;;;;;0.65;0.65;;;22.60;99.90;;;;;;4989008;28;20646;-86
2023/09/15 12:06:36;;;;;;;0.70;0.70;;;23.10;99.90;;;;;;4973921;28;20052;-86
2023/09/15 12:09:03;;;;;;;0.77;0.77;;;23.00;99.90;;;;;;4988442;28;20116;-87
2023/09/15 12:11:29;;;;;;;0.70;0.70;;;22.50;99.90;;;;;;4984281;28;20058;-89
2023/09/15 12:14:06;;;;;;;0.70;0.70;;;21.90;99.90;;;;;;4987569;28;20042;-94
2023/09/15 12:16:35;;;;;;;0.68;0.68;;;22.30;99.90;;;;;;4972425;28;20034;-85
2023/09/15 12:19:01;;;;;;;0.70;0.70;;;22.50;99.90;;;;;;4975071;28;20105;-90
2023/09/15 12:21:28;;;;;;;0.70;0.70;;;23.20;99.90;;;;;;4970855;28;20077;-84
2023/09/15 12:24:10;;;;;;;0.70;0.70;;;22.90;99.90;;;;;;4989116;28;20050;-87
2023/09/15 12:26:42;;;;;;;0.60;0.60;;;22.70;99.90;;;;;;4972485;28;20046;-88
2023/09/15 12:29:08;;;;;;;0.70;0.70;;;22.80;99.90;;;;;;4987597;28;21425;-83
2023/09/15 12:31:41;;;;;;;0.60;0.60;;;22.70;99.90;;;;;;5014051;28;20101;-88
2023/09/15 12:34:08;;;;;;;0.65;0.65;;;22.30;99.90;;;;;;4987604;28;20052;-87
2023/09/15 12:36:33;;;;;;;0.60;0.60;;;22.80;99.90;;;;;;4974021;28;20498;-86
2023/09/15 12:38:59;;;;;;;0.50;0.50;;;23.20;99.90;;;;;;4968151;28;20141;-86
2023/09/15 12:41:25;;;;;;;0.30;0.30;;;23.40;99.90;;;;;;4979180;28;20042;-86
2023/09/15 12:43:50;;;;;;;0.65;0.65;;;23.30;99.90;;;;;;4989532;28;20710;-86
2023/09/15 12:46:16;;;;;;;0.60;0.60;;;23.20;99.90;;;;;;4982287;28;20156;-86
2023/09/15 12:48:45;;;;;;;0.30;0.30;;;23.70;99.90;;;;;;4969449;28;20049;-88
2023/09/15 12:51:11;;;;;;;0.70;0.70;;;23.50;99.90;;;;;;4976505;28;20049;-87
2023/09/15 12:53:37;;;;;;;0.30;0.30;;;23.70;99.90;;;;;;4987482;28;20046;-88